Time;durP1;ratioP1;P1;durP2;ratioP2;P2;SDS_P1;SDS_P2;PMS_P1;PMS_P2;Temp;Humidity;BMP_temperature;BMP_pressure;BME280_temperature;BME280_humidity;BME280_pressure;Samples;Min_cycle;Max_cycle;Signal;HPM_P1;HPM_P2
2021/08/25 00:02:19;;;;;;;1.98;1.50;;;;;;;25.91;45.76;100456.09;1759291;80;21083;-45
2021/08/25 00:04:45;;;;;;;2.10;1.87;;;;;;;25.92;45.78;100454.11;1760160;80;21091;-44
2021/08/25 00:07:11;;;;;;;2.22;1.50;;;;;;;25.93;45.83;100452.92;1756819;80;21505;-44
2021/08/25 00:09:40;;;;;;;2.50;2.05;;;;;;;25.93;45.88;100448.73;1757501;80;21678;-48
2021/08/25 00:12:08;;;;;;;2.47;1.60;;;;;;;25.93;45.93;100452.34;1761808;80;21008;-44
2021/08/25 00:14:37;;;;;;;1.75;1.37;;;;;;;25.93;45.96;100450.94;1757867;80;21067;-45
2021/08/25 00:17:03;;;;;;;2.37;1.62;;;;;;;25.95;46.00;100444.20;1753414;80;21042;-45
2021/08/25 00:19:29;;;;;;;2.02;1.50;;;;;;;25.95;46.06;100444.20;1755163;80;21102;-44
2021/08/25 00:21:55;;;;;;;1.80;1.37;;;;;;;25.95;46.09;100445.59;1768478;80;22019;-46
2021/08/25 00:24:22;;;;;;;2.95;1.40;;;;;;;25.95;46.14;100445.02;1790893;79;21055;-43
2021/08/25 00:26:48;;;;;;;1.85;1.60;;;;;;;25.96;46.19;100442.45;1784867;78;21080;-44
2021/08/25 00:29:14;;;;;;;1.87;1.40;;;;;;;25.96;46.23;100445.25;1778087;79;21017;-43
2021/08/25 00:31:41;;;;;;;2.17;1.55;;;;;;;25.97;46.29;100443.27;1786579;79;21027;-46
2021/08/25 00:34:08;;;;;;;2.47;1.30;;;;;;;25.97;46.32;100446.84;1793508;78;21566;-45
2021/08/25 00:36:34;;;;;;;2.22;1.45;;;;;;;25.98;46.37;100439.29;1769327;79;21278;-43
2021/08/25 00:39:01;;;;;;;2.27;1.60;;;;;;;25.98;46.42;100436.50;1761935;80;21344;-43
2021/08/25 00:41:27;;;;;;;2.50;1.50;;;;;;;25.99;46.45;100439.52;1793806;79;21039;-44
2021/08/25 00:43:53;;;;;;;1.67;1.30;;;;;;;25.98;46.49;100433.13;1788674;79;21521;-43
2021/08/25 00:46:19;;;;;;;1.80;1.50;;;;;;;25.98;46.55;100434.52;1787566;79;23171;-44
2021/08/25 00:48:47;;;;;;;2.30;1.50;;;;;;;25.99;46.61;100436.73;1792133;79;21032;-44
2021/08/25 00:51:16;;;;;;;2.20;1.45;;;;;;;25.99;46.65;100433.94;1795056;79;21582;-43
2021/08/25 00:53:44;;;;;;;1.85;1.45;;;;;;;25.99;46.70;100437.55;1793988;79;21071;-42
2021/08/25 00:56:11;;;;;;;1.92;1.37;;;;;;;26.00;46.75;100429.99;1788673;79;21071;-46
2021/08/25 00:58:41;;;;;;;2.33;1.40;;;;;;;25.99;46.77;100423.61;1794775;79;21438;-42
2021/08/25 01:01:15;;;;;;;2.58;1.70;;;;;;;26.00;46.83;100427.20;1781803;79;26910;-44
2021/08/25 01:03:50;;;;;;;2.20;1.62;;;;;;;25.99;46.88;100430.58;1781740;78;21068;-43
2021/08/25 01:06:22;;;;;;;1.77;1.35;;;;;;;26.00;46.92;100430.80;1778081;78;21023;-42
2021/08/25 01:08:48;;;;;;;1.92;1.42;;;;;;;26.01;46.95;100424.06;1771163;79;21087;-46
2021/08/25 01:11:14;;;;;;;2.67;1.60;;;;;;;26.00;46.99;100431.39;1792553;79;22117;-44
2021/08/25 01:13:40;;;;;;;1.98;1.30;;;;;;;26.00;47.04;100425.23;1792053;79;20977;-43
2021/08/25 01:16:07;;;;;;;1.95;1.45;;;;;;;26.00;47.08;100418.27;1792097;79;21023;-44
2021/08/25 01:18:34;;;;;;;2.27;1.45;;;;;;;26.00;47.12;100415.47;1780092;79;21016;-42
2021/08/25 01:21:00;;;;;;;1.60;1.27;;;;;;;26.01;47.13;100412.91;1787076;79;21012;-43
2021/08/25 01:23:27;;;;;;;2.62;1.52;;;;;;;26.02;47.15;100408.12;1786764;78;21124;-43
2021/08/25 01:26:00;;;;;;;2.00;1.32;;;;;;;26.01;47.20;100407.92;1793643;78;21893;-43
2021/08/25 01:28:28;;;;;;;1.92;1.40;;;;;;;26.01;47.21;100405.95;1782830;78;21111;-43
2021/08/25 01:30:54;;;;;;;2.25;1.60;;;;;;;26.02;47.25;100410.91;1788724;78;21057;-43
2021/08/25 01:33:27;;;;;;;1.98;1.40;;;;;;;26.02;47.27;100411.72;1797524;78;20993;-44
2021/08/25 01:35:53;;;;;;;2.27;1.50;;;;;;;26.02;47.28;100415.09;1795445;79;21028;-44
2021/08/25 01:38:41;;;;;;;1.90;1.42;;;;;;;26.01;47.31;100412.91;1804272;79;21416;-43
2021/08/25 01:41:07;;;;;;;1.70;1.20;;;;;;;26.01;47.35;100415.70;1794027;78;21044;-43
2021/08/25 01:43:36;;;;;;;1.72;1.25;;;;;;;26.01;47.35;100407.34;1783824;78;21012;-46
2021/08/25 01:46:02;;;;;;;2.40;1.45;;;;;;;26.01;47.39;100411.52;1797547;79;21605;-43
2021/08/25 01:48:31;;;;;;;1.98;1.40;;;;;;;26.00;47.45;100411.29;1778212;79;23172;-44
2021/08/25 01:50:57;;;;;;;1.90;1.45;;;;;;;26.01;47.45;100401.77;1783553;78;21059;-44
2021/08/25 01:53:23;;;;;;;1.90;1.40;;;;;;;26.00;47.52;100404.32;1789443;78;21042;-45
2021/08/25 01:55:49;;;;;;;2.02;1.25;;;;;;;26.01;47.52;100398.98;1802109;79;21258;-44
2021/08/25 01:58:16;;;;;;;2.20;1.35;;;;;;;26.01;47.55;100396.19;1801870;79;20977;-45
2021/08/25 02:00:42;;;;;;;2.27;1.60;;;;;;;26.01;47.55;100393.98;1804024;78;22022;-43
2021/08/25 02:03:08;;;;;;;2.37;1.45;;;;;;;26.01;47.55;100398.98;1798495;78;20968;-43
2021/08/25 02:05:34;;;;;;;2.87;1.50;;;;;;;26.01;47.59;100403.16;1797144;78;20966;-43
2021/08/25 02:08:00;;;;;;;2.08;1.55;;;;;;;26.01;47.64;100393.98;1794381;78;20990;-46
2021/08/25 02:10:26;;;;;;;2.17;1.32;;;;;;;26.01;47.66;100398.16;1785738;78;21068;-44
2021/08/25 02:12:52;;;;;;;1.65;1.45;;;;;;;26.01;47.67;100400.95;1800160;78;21652;-46
2021/08/25 02:15:19;;;;;;;2.20;1.70;;;;;;;26.01;47.68;100398.98;1793954;78;20942;-46
2021/08/25 02:17:45;;;;;;;2.27;1.70;;;;;;;26.00;47.68;100402.93;1797953;78;21154;-43
2021/08/25 02:20:12;;;;;;;2.55;1.80;;;;;;;26.01;47.68;100410.70;1802608;78;21063;-45
2021/08/25 02:22:38;;;;;;;2.30;1.57;;;;;;;26.01;47.72;100402.34;1806963;78;20974;-43
2021/08/25 02:25:05;;;;;;;2.67;2.00;;;;;;;26.01;47.71;100402.34;1767069;79;21983;-45
2021/08/25 02:27:31;;;;;;;2.27;1.70;;;;;;;26.01;47.73;100405.13;1755685;80;21044;-42
2021/08/25 02:29:57;;;;;;;1.87;1.50;;;;;;;26.01;47.74;100412.10;1759826;80;20948;-44
2021/08/25 02:32:27;;;;;;;2.20;1.60;;;;;;;26.01;47.74;100406.53;1753574;80;20873;-43
2021/08/25 02:34:53;;;;;;;2.72;1.52;;;;;;;26.00;47.78;100409.09;1707705;83;21455;-43
2021/08/25 02:37:20;;;;;;;2.15;1.52;;;;;;;26.00;47.79;100415.47;1712329;83;21295;-44
2021/08/25 02:39:46;;;;;;;1.82;1.57;;;;;;;26.00;47.81;100410.48;1727568;82;21062;-42
2021/08/25 02:42:12;;;;;;;2.15;1.70;;;;;;;26.00;47.85;100412.69;1697581;83;21051;-43
2021/08/25 02:44:38;;;;;;;4.17;1.52;;;;;;;26.00;47.86;100415.47;1698912;83;21087;-42
2021/08/25 02:47:04;;;;;;;1.77;1.50;;;;;;;26.00;47.88;100412.69;1710479;83;21099;-47
2021/08/25 02:49:31;;;;;;;2.02;1.62;;;;;;;25.99;47.91;100406.87;1707560;83;21099;-42
2021/08/25 02:51:57;;;;;;;1.70;1.40;;;;;;;26.00;47.96;100410.48;1711309;83;21083;-42
2021/08/25 02:54:23;;;;;;;3.40;1.92;;;;;;;25.99;47.95;100415.24;1709409;83;20928;-43
2021/08/25 02:56:49;;;;;;;2.37;1.70;;;;;;;25.99;47.99;100415.24;1709912;83;21084;-45
2021/08/25 02:59:15;;;;;;;2.98;1.95;;;;;;;26.00;48.00;100416.05;1710963;83;21024;-44
2021/08/25 03:01:41;;;;;;;2.58;2.00;;;;;;;26.00;48.03;100418.27;1697691;83;21117;-42
2021/08/25 03:04:08;;;;;;;2.92;1.90;;;;;;;25.99;48.07;100415.24;1714197;82;21519;-42
2021/08/25 03:06:34;;;;;;;2.25;1.85;;;;;;;25.99;48.10;100412.45;1711880;82;21019;-47
2021/08/25 03:09:00;;;;;;;2.05;1.80;;;;;;;25.99;48.13;100411.06;1721084;82;21068;-46
2021/08/25 03:11:26;;;;;;;2.40;1.92;;;;;;;26.00;48.18;100410.48;1721143;82;21683;-42
2021/08/25 03:13:52;;;;;;;2.45;2.12;;;;;;;25.98;48.22;100406.65;1710712;82;21278;-42
2021/08/25 03:16:18;;;;;;;2.35;1.80;;;;;;;25.99;48.30;100412.45;1715566;82;21146;-42
2021/08/25 03:18:44;;;;;;;3.77;2.37;;;;;;;25.98;48.34;100410.83;1715371;82;21206;-44
2021/08/25 03:21:10;;;;;;;3.27;2.25;;;;;;;25.98;48.41;100408.05;1714103;82;21053;-47
2021/08/25 03:23:36;;;;;;;2.30;1.90;;;;;;;25.98;48.45;100416.98;1715735;80;21071;-43
2021/08/25 03:26:02;;;;;;;2.90;2.40;;;;;;;25.99;48.50;100414.43;1755152;80;21169;-43
2021/08/25 03:28:28;;;;;;;2.65;1.95;;;;;;;25.97;48.55;100406.42;1744613;80;20907;-43
2021/08/25 03:30:57;;;;;;;3.87;2.10;;;;;;;25.98;48.58;100408.62;1754404;80;21025;-45
2021/08/25 03:33:28;;;;;;;3.40;2.10;;;;;;;25.98;48.64;100415.59;1785976;78;21080;-44
2021/08/25 03:35:54;;;;;;;2.33;1.95;;;;;;;25.97;48.68;100406.42;1772119;78;21017;-44
2021/08/25 03:38:20;;;;;;;3.33;2.40;;;;;;;25.97;48.74;100409.82;1782711;78;22442;-45
2021/08/25 03:40:46;;;;;;;2.75;2.10;;;;;;;25.97;48.77;100407.03;1803737;78;21101;-43
2021/08/25 03:43:13;;;;;;;3.00;2.20;;;;;;;25.97;48.80;100407.03;1796491;78;21683;-43
2021/08/25 03:45:39;;;;;;;2.80;2.10;;;;;;;25.97;48.85;100405.64;1793291;78;21824;-45
2021/08/25 03:48:06;;;;;;;2.87;2.50;;;;;;;25.96;48.91;100409.59;1801460;79;21178;-43
2021/08/25 03:50:32;;;;;;;2.98;2.30;;;;;;;25.96;48.93;100417.38;1785545;79;21053;-43
2021/08/25 03:53:00;;;;;;;2.42;2.20;;;;;;;25.96;48.98;100418.77;1797944;79;21348;-43
2021/08/25 03:55:26;;;;;;;3.42;2.47;;;;;;;25.96;49.03;100418.77;1790928;78;21052;-47
2021/08/25 03:57:52;;;;;;;3.67;2.30;;;;;;;25.97;49.11;100419.58;1790726;78;21004;-45
2021/08/25 04:00:18;;;;;;;20.77;6.40;;;;;;;25.97;49.19;100417.57;1768968;78;21070;-44
2021/08/25 04:02:45;;;;;;;32.95;8.43;;;;;;;25.97;49.26;100424.54;1782348;79;23189;-43
2021/08/25 04:05:11;;;;;;;37.60;12.28;;;;;;;25.99;49.30;100439.52;1794720;78;21250;-45
2021/08/25 04:07:37;;;;;;;21.05;7.28;;;;;;;25.99;49.33;100427.78;1799274;78;21592;-43
2021/08/25 04:10:04;;;;;;;18.85;6.08;;;;;;;25.99;49.36;100433.36;1787596;78;22006;-48
2021/08/25 04:12:30;;;;;;;52.78;14.45;;;;;;;26.00;49.40;100427.20;1801261;78;21040;-44
2021/08/25 04:14:56;;;;;;;101.10;23.45;;;;;;;26.02;49.41;100429.03;1787556;78;22215;-43
2021/08/25 04:17:23;;;;;;;97.17;19.57;;;;;;;26.01;49.46;100442.19;1795189;78;21122;-44
2021/08/25 04:19:49;;;;;;;215.47;48.35;;;;;;;26.02;49.48;100438.20;1792874;79;21772;-43
2021/08/25 04:22:15;;;;;;;169.77;36.77;;;;;;;26.02;49.49;100441.57;1784039;78;21150;-44
2021/08/25 04:24:41;;;;;;;287.65;72.65;;;;;;;26.03;49.54;100441.22;1789526;78;21059;-44
2021/08/25 04:27:07;;;;;;;191.37;47.78;;;;;;;26.03;49.55;100438.43;1791324;78;21192;-42
2021/08/25 04:29:33;;;;;;;400.95;124.02;;;;;;;26.04;49.60;100433.67;1799118;78;21079;-45
2021/08/25 04:31:59;;;;;;;229.50;62.78;;;;;;;26.04;49.66;100431.69;1778439;79;21267;-45
2021/08/25 04:34:25;;;;;;;177.82;46.10;;;;;;;26.05;49.70;100432.50;1807528;78;20922;-45
2021/08/25 04:36:51;;;;;;;60.23;16.25;;;;;;;26.05;49.70;100433.90;1792007;79;21011;-43
2021/08/25 04:39:18;;;;;;;15.55;6.17;;;;;;;26.04;49.70;100440.05;1801184;79;22188;-45
2021/08/25 04:41:44;;;;;;;6.40;4.10;;;;;;;26.04;49.70;100441.45;1798066;78;21041;-42
2021/08/25 04:44:10;;;;;;;12.03;5.72;;;;;;;26.05;49.72;100444.47;1792385;78;21510;-44
2021/08/25 04:46:36;;;;;;;78.07;29.98;;;;;;;26.05;49.84;100433.90;1802522;78;21068;-43
2021/08/25 04:49:02;;;;;;;15.28;6.62;;;;;;;26.06;49.88;100437.70;1804701;79;21138;-43
2021/08/25 04:51:28;;;;;;;27.52;11.05;;;;;;;26.07;49.96;100444.08;1791115;78;21107;-44
2021/08/25 04:53:55;;;;;;;30.72;11.50;;;;;;;26.07;50.02;100446.29;1747873;81;21704;-42
2021/08/25 04:56:21;;;;;;;53.68;17.12;;;;;;;26.08;50.05;100449.31;1727004;82;21290;-43
2021/08/25 04:58:47;;;;;;;27.42;8.38;;;;;;;26.08;50.08;100450.70;1786995;78;21599;-43
2021/08/25 05:01:13;;;;;;;34.43;12.45;;;;;;;26.09;50.06;100463.48;1790976;78;21315;-43
2021/08/25 05:03:39;;;;;;;11.70;4.53;;;;;;;26.10;50.06;100460.08;1775201;78;21187;-48
2021/08/25 05:06:11;;;;;;;9.08;4.30;;;;;;;26.09;50.06;100460.69;1806668;78;21073;-43
2021/08/25 05:08:37;;;;;;;7.42;3.60;;;;;;;26.11;50.06;100459.72;1791047;78;21069;-43
2021/08/25 05:11:03;;;;;;;3.90;3.17;;;;;;;26.11;50.06;100455.54;1794551;78;21036;-44
2021/08/25 05:13:30;;;;;;;5.40;3.10;;;;;;;26.12;50.06;100455.77;1795654;78;21028;-43
2021/08/25 05:15:56;;;;;;;8.18;3.62;;;;;;;26.12;50.04;100461.34;1799165;79;21838;-42
2021/08/25 05:18:22;;;;;;;10.25;4.15;;;;;;;26.12;50.06;100462.74;1795976;79;21545;-43
2021/08/25 05:20:48;;;;;;;8.65;5.00;;;;;;;26.13;50.17;100464.95;1800945;79;21481;-43
2021/08/25 05:23:14;;;;;;;28.57;9.53;;;;;;;26.13;50.23;100476.10;1790661;79;20901;-43
2021/08/25 05:25:41;;;;;;;14.58;6.37;;;;;;;26.14;50.24;100470.14;1792518;79;21032;-43
2021/08/25 05:28:07;;;;;;;9.58;3.67;;;;;;;26.14;50.24;100469.36;1793683;79;21113;-41
2021/08/25 05:30:33;;;;;;;12.30;3.87;;;;;;;26.15;50.26;100466.77;1807532;79;21333;-41
2021/08/25 05:32:59;;;;;;;11.40;4.03;;;;;;;26.14;50.33;100467.35;1788411;78;20977;-42
2021/08/25 05:35:25;;;;;;;6.28;3.40;;;;;;;26.14;50.36;100472.92;1788310;78;20889;-42
2021/08/25 05:37:51;;;;;;;7.60;3.70;;;;;;;26.14;50.37;100473.55;1798439;79;21570;-43
2021/08/25 05:40:17;;;;;;;6.90;3.42;;;;;;;26.14;50.36;100471.53;1796568;78;23302;-42
2021/08/25 05:42:45;;;;;;;11.93;4.33;;;;;;;26.14;50.37;100466.57;1791628;79;20989;-41
2021/08/25 05:45:12;;;;;;;10.95;3.55;;;;;;;26.14;50.35;100471.53;1793033;79;21136;-43
2021/08/25 05:47:40;;;;;;;12.68;4.58;;;;;;;26.14;50.35;100479.90;1784564;79;21501;-43
2021/08/25 05:50:07;;;;;;;13.08;4.10;;;;;;;26.15;50.32;100479.31;1778883;78;21082;-43
2021/08/25 05:52:33;;;;;;;9.63;3.80;;;;;;;26.14;50.32;100477.73;1794948;78;21269;-42
2021/08/25 05:54:59;;;;;;;10.13;3.77;;;;;;;26.14;50.30;100470.75;1788467;78;20900;-44
2021/08/25 05:57:25;;;;;;;10.25;4.42;;;;;;;26.13;50.30;100467.73;1752851;80;21013;-42
2021/08/25 05:59:51;;;;;;;13.13;3.83;;;;;;;26.14;50.23;100469.36;1748088;81;21324;-43
2021/08/25 06:02:17;;;;;;;9.20;3.58;;;;;;;26.13;50.19;100472.73;1764725;80;21014;-42
2021/08/25 06:04:44;;;;;;;17.27;4.10;;;;;;;26.13;50.17;100469.12;1796360;78;21577;-42
2021/08/25 06:07:10;;;;;;;9.83;3.72;;;;;;;26.13;50.13;100469.94;1797833;78;21032;-43
2021/08/25 06:09:36;;;;;;;11.03;4.33;;;;;;;26.14;50.08;100470.75;1794813;78;21045;-44
2021/08/25 06:12:04;;;;;;;9.08;3.52;;;;;;;26.14;50.10;100466.57;1769240;79;20915;-43
2021/08/25 06:14:30;;;;;;;7.20;4.08;;;;;;;26.14;50.09;100467.35;1747593;81;21096;-44
2021/08/25 06:16:57;;;;;;;6.42;3.62;;;;;;;26.13;50.07;100461.58;1793506;79;22015;-44
2021/08/25 06:19:24;;;;;;;9.38;3.40;;;;;;;26.13;50.04;100466.34;1792820;78;21022;-43
2021/08/25 06:21:51;;;;;;;7.58;3.00;;;;;;;26.13;50.02;100464.36;1780473;78;20988;-42
2021/08/25 06:24:17;;;;;;;6.15;3.08;;;;;;;26.14;49.97;100454.80;1781934;78;20972;-42
2021/08/25 06:26:43;;;;;;;5.85;3.30;;;;;;;26.13;49.95;100447.64;1788432;79;21102;-42
2021/08/25 06:29:09;;;;;;;4.83;3.00;;;;;;;26.15;49.92;100445.86;1781103;78;21156;-42
2021/08/25 06:31:36;;;;;;;6.30;2.75;;;;;;;26.15;49.89;100444.47;1779237;79;21099;-42
2021/08/25 06:34:02;;;;;;;6.40;3.20;;;;;;;26.14;49.87;100447.84;1777180;79;21522;-43
2021/08/25 06:36:28;;;;;;;7.70;2.87;;;;;;;26.15;49.87;100440.28;1801696;78;21914;-42
2021/08/25 06:38:54;;;;;;;6.50;2.50;;;;;;;26.15;49.90;100434.70;1781907;78;21024;-41
2021/08/25 06:41:20;;;;;;;6.53;3.20;;;;;;;26.15;49.87;100445.27;1783461;79;21667;-42
2021/08/25 06:43:46;;;;;;;6.45;2.80;;;;;;;26.14;49.85;100442.26;1783132;79;20918;-42
2021/08/25 06:46:12;;;;;;;5.15;2.60;;;;;;;26.16;49.84;100448.30;1785989;78;21056;-41
2021/08/25 06:48:38;;;;;;;5.15;2.80;;;;;;;26.17;49.83;100443.53;1792139;78;21544;-41
2021/08/25 06:51:04;;;;;;;4.78;2.70;;;;;;;26.16;49.79;100445.50;1791212;78;21053;-42
2021/08/25 06:53:31;;;;;;;6.05;3.00;;;;;;;26.16;49.79;100444.70;1791697;78;21205;-42
2021/08/25 06:55:58;;;;;;;7.05;2.87;;;;;;;26.16;49.78;100446.90;1795086;78;21039;-41
2021/08/25 06:58:26;;;;;;;3.85;2.42;;;;;;;26.18;49.76;100452.12;1797451;78;21000;-42
2021/08/25 07:00:52;;;;;;;6.37;3.00;;;;;;;26.17;49.75;100449.92;1776973;79;21060;-41
2021/08/25 07:03:18;;;;;;;6.03;2.92;;;;;;;26.19;49.75;100444.77;1792507;79;21554;-42
2021/08/25 07:05:44;;;;;;;4.58;2.90;;;;;;;26.17;49.73;100444.34;1793871;78;21294;-41
2021/08/25 07:08:10;;;;;;;5.53;2.95;;;;;;;26.18;49.74;100446.55;1791411;79;21024;-42
2021/08/25 07:10:36;;;;;;;4.17;2.47;;;;;;;26.18;49.72;100443.14;1794957;78;21073;-43
2021/08/25 07:13:03;;;;;;;5.83;2.47;;;;;;;26.19;49.72;100448.14;1800800;78;21044;-42
2021/08/25 07:15:29;;;;;;;4.20;3.00;;;;;;;26.18;49.71;100444.54;1796591;79;21463;-42
2021/08/25 07:17:55;;;;;;;6.10;2.70;;;;;;;26.18;49.71;100435.39;1781395;78;22049;-43
2021/08/25 07:20:22;;;;;;;5.28;2.58;;;;;;;26.20;49.70;100434.45;1776186;78;21558;-42
2021/08/25 07:22:48;;;;;;;4.25;2.98;;;;;;;26.19;49.71;100430.83;1789525;79;20964;-42
2021/08/25 07:25:14;;;;;;;4.25;2.60;;;;;;;26.19;49.71;100435.01;1783325;78;21115;-42
2021/08/25 07:27:40;;;;;;;4.20;2.55;;;;;;;26.21;49.71;100430.50;1786123;78;21025;-42
2021/08/25 07:30:09;;;;;;;4.28;2.95;;;;;;;26.20;49.74;100428.30;1795510;78;22360;-41
2021/08/25 07:32:36;;;;;;;4.87;2.65;;;;;;;26.20;49.73;100438.06;1799875;78;21059;-43
2021/08/25 07:35:03;;;;;;;4.95;2.80;;;;;;;26.21;49.73;100430.50;1794074;78;21304;-41
2021/08/25 07:37:29;;;;;;;4.75;2.72;;;;;;;26.20;49.74;100435.27;1788886;78;21099;-42
2021/08/25 07:39:56;;;;;;;4.05;2.55;;;;;;;26.21;49.73;100429.11;1784094;78;21022;-42
2021/08/25 07:42:22;;;;;;;4.30;2.75;;;;;;;26.21;49.71;100436.89;1799052;78;23180;-42
2021/08/25 07:44:48;;;;;;;4.22;2.60;;;;;;;26.21;49.73;100438.88;1796035;79;21391;-43
2021/08/25 07:47:14;;;;;;;3.60;2.75;;;;;;;26.21;49.76;100437.47;1791226;79;21496;-42
2021/08/25 07:49:40;;;;;;;3.90;2.47;;;;;;;26.22;49.75;100446.07;1791803;78;20921;-43
2021/08/25 07:52:06;;;;;;;3.83;2.60;;;;;;;26.21;49.76;100449.44;1791356;79;21012;-43
2021/08/25 07:54:33;;;;;;;3.90;3.33;;;;;;;26.22;49.76;100451.06;1784386;79;21206;-42
2021/08/25 07:56:59;;;;;;;3.67;2.52;;;;;;;26.23;49.78;100461.61;1791358;78;21569;-41
2021/08/25 07:59:25;;;;;;;4.83;2.75;;;;;;;26.22;49.79;100465.01;1793761;79;20890;-41
2021/08/25 08:01:53;;;;;;;3.80;2.50;;;;;;;26.23;49.78;100465.79;1799789;79;20981;-43
2021/08/25 08:04:19;;;;;;;4.10;2.83;;;;;;;26.24;49.79;100468.81;1800697;78;21048;-43
2021/08/25 08:06:45;;;;;;;4.15;2.77;;;;;;;26.23;49.81;100471.37;1784064;79;21017;-45
2021/08/25 08:09:11;;;;;;;5.70;2.90;;;;;;;26.24;49.81;100478.56;1787622;79;21011;-42
2021/08/25 08:11:37;;;;;;;4.00;2.77;;;;;;;26.23;49.80;100474.97;1803448;79;20916;-43
2021/08/25 08:14:05;;;;;;;4.17;2.70;;;;;;;26.23;49.81;100472.77;1792405;79;20957;-44
2021/08/25 08:16:34;;;;;;;3.72;2.70;;;;;;;26.24;49.81;100473.80;1792635;79;21472;-46
2021/08/25 08:19:04;;;;;;;4.50;2.77;;;;;;;26.24;49.84;100471.02;1776605;79;21562;-43
2021/08/25 08:21:29;;;;;;;;;;;;;;;26.24;49.85;100468.81;1802701;78;21083;-44
2021/08/25 08:23:56;;;;;;;4.30;2.58;;;;;;;26.24;49.85;100465.44;1788416;79;20287;-42
2021/08/25 08:26:23;;;;;;;4.53;2.98;;;;;;;26.22;49.85;100462.80;1788889;78;21505;-42
2021/08/25 08:28:49;;;;;;;3.83;2.50;;;;;;;26.23;49.87;100465.79;1773513;78;21009;-41
2021/08/25 08:31:15;;;;;;;3.75;2.45;;;;;;;26.22;49.88;100466.41;1775402;78;21294;-42
2021/08/25 08:33:41;;;;;;;3.98;2.77;;;;;;;26.24;49.88;100471.59;1769500;78;21502;-42
2021/08/25 08:36:07;;;;;;;3.85;3.00;;;;;;;26.24;49.89;100463.23;1773302;78;20967;-42
2021/08/25 08:38:33;;;;;;;3.90;2.87;;;;;;;26.24;49.93;100462.65;1779119;78;21941;-42
2021/08/25 08:40:59;;;;;;;3.62;3.10;;;;;;;26.24;49.92;100455.67;1775856;78;21026;-42
2021/08/25 08:43:25;;;;;;;3.83;2.47;;;;;;;26.25;49.93;100458.69;1773608;78;22072;-41
2021/08/25 08:45:52;;;;;;;3.75;2.40;;;;;;;26.25;49.93;100457.88;1769626;78;20989;-43
2021/08/25 08:48:18;;;;;;;4.00;2.47;;;;;;;26.26;49.95;100454.74;1766061;78;20926;-43
2021/08/25 08:50:48;;;;;;;3.58;2.67;;;;;;;26.26;49.95;100451.95;1779416;78;21030;-42
2021/08/25 08:53:17;;;;;;;4.78;2.72;;;;;;;26.26;49.92;100446.38;1764491;78;21483;-42
2021/08/25 08:55:44;;;;;;;4.10;2.65;;;;;;;26.26;49.95;100444.98;1785230;78;21593;-42
2021/08/25 08:58:10;;;;;;;3.67;2.12;;;;;;;26.27;49.95;100440.19;1779510;78;21050;-42
2021/08/25 09:00:38;;;;;;;3.35;2.60;;;;;;;26.27;49.96;100431.81;1771892;78;21692;-42
2021/08/25 09:03:21;;;;;;;4.95;3.00;;;;;;;26.27;49.97;100431.23;1756825;78;21816;-43
2021/08/25 09:05:58;;;;;;;4.40;2.80;;;;;;;26.28;49.96;100426.47;1771251;78;21039;-42
2021/08/25 09:08:27;;;;;;;3.83;2.15;;;;;;;26.27;49.96;100417.29;1758117;78;21131;-41
2021/08/25 09:11:09;;;;;;;4.35;2.60;;;;;;;26.28;49.96;100414.73;1711508;81;21044;-42
2021/08/25 09:13:48;;;;;;;4.83;2.83;;;;;;;26.29;49.98;100410.77;1746315;80;21166;-41
2021/08/25 09:16:32;;;;;;;4.00;2.30;;;;;;;26.28;49.97;100414.73;1724684;81;21203;-44
2021/08/25 09:19:10;;;;;;;4.12;2.90;;;;;;;26.28;49.98;100409.15;1739388;81;21059;-41
2021/08/25 09:21:40;;;;;;;3.87;2.40;;;;;;;26.28;50.01;100398.58;1721721;81;21133;-41
2021/08/25 09:24:06;;;;;;;3.90;2.27;;;;;;;26.28;50.01;100398.58;1729346;81;21119;-43
2021/08/25 09:26:34;;;;;;;6.20;2.50;;;;;;;26.29;50.03;100405.78;1741379;79;21047;-46
2021/08/25 09:29:20;;;;;;;2.72;2.40;;;;;;;26.29;50.13;100398.22;1766440;80;21094;-44
2021/08/25 09:31:49;;;;;;;3.83;2.40;;;;;;;26.29;50.13;100403.80;1768783;79;21037;-45
2021/08/25 09:34:29;;;;;;;3.37;2.42;;;;;;;26.27;50.01;100397.77;1769658;80;21103;-45
2021/08/25 09:37:16;;;;;;;2.77;2.25;;;;;;;26.25;49.89;100394.55;1765561;79;21061;-47
2021/08/25 09:39:48;;;;;;;3.75;2.52;;;;;;;26.22;49.74;100395.30;1766237;80;21467;-44
2021/08/25 09:42:18;;;;;;;3.55;2.40;;;;;;;26.19;49.57;100393.77;1774694;80;21164;-47
2021/08/25 09:44:45;;;;;;;4.45;2.17;;;;;;;26.15;49.39;100380.34;1770174;79;21083;-46
2021/08/25 09:47:12;;;;;;;3.25;2.33;;;;;;;26.13;49.25;100373.75;1762017;80;21205;-48
2021/08/25 09:49:38;;;;;;;5.08;2.40;;;;;;;26.12;49.08;100375.50;1764899;80;21045;-46
2021/08/25 09:52:08;;;;;;;8.28;2.87;;;;;;;26.12;48.95;100369.34;1740746;81;21554;-45
2021/08/25 09:54:34;;;;;;;9.03;3.30;;;;;;;26.12;48.80;100359.58;1739996;81;21832;-45
2021/08/25 09:57:00;;;;;;;5.97;3.00;;;;;;;26.13;48.61;100361.78;1776060;80;21154;-47
2021/08/25 09:59:26;;;;;;;6.22;3.70;;;;;;;26.12;48.38;100355.39;1753031;81;21305;-48
2021/08/25 10:01:53;;;;;;;5.55;3.00;;;;;;;26.12;48.19;100355.98;1757954;80;20981;-45
2021/08/25 10:04:19;;;;;;;6.20;3.22;;;;;;;26.12;48.01;100354.59;1759197;80;21520;-47
2021/08/25 10:06:49;;;;;;;4.55;2.90;;;;;;;26.14;47.88;100343.89;1773822;80;21029;-46
2021/08/25 10:09:16;;;;;;;;;;;;;;;26.15;47.75;100340.72;1769650;80;20981;-46
2021/08/25 10:11:59;;;;;;;6.83;2.87;;;;;;;26.19;47.70;100329.05;1771826;80;20267;-47
2021/08/25 10:14:29;;;;;;;6.08;2.75;;;;;;;26.20;47.67;100328.50;1757596;81;21024;-46
2021/08/25 10:16:55;;;;;;;3.58;2.62;;;;;;;26.22;47.66;100325.58;1714287;81;21150;-46
2021/08/25 10:19:40;;;;;;;4.78;2.77;;;;;;;26.24;47.64;100323.80;1772042;79;21009;-48
2021/08/25 10:22:19;;;;;;;4.45;2.80;;;;;;;26.25;47.69;100322.05;1772732;80;21542;-47
2021/08/25 10:25:01;;;;;;;3.35;2.62;;;;;;;26.27;47.70;100326.66;1743687;80;23152;-48
2021/08/25 10:27:30;;;;;;;4.15;2.90;;;;;;;26.29;47.73;100327.69;1735666;81;21553;-46
2021/08/25 10:30:06;;;;;;;3.85;2.75;;;;;;;26.30;47.74;100331.52;1743394;81;21064;-46
2021/08/25 10:32:37;;;;;;;5.47;2.55;;;;;;;26.31;47.75;100324.74;1758589;80;21101;-47
2021/08/25 10:35:15;;;;;;;6.75;3.02;;;;;;;26.33;47.77;100330.77;1747710;80;21111;-47
2021/08/25 10:37:41;;;;;;;4.37;2.60;;;;;;;26.34;47.78;100324.61;1724070;81;21074;-48
2021/08/25 10:40:09;;;;;;;4.22;2.70;;;;;;;26.36;47.79;100329.22;1760223;80;20906;-47
2021/08/25 10:43:00;;;;;;;5.05;2.80;;;;;;;26.36;47.79;100324.45;1764995;80;21080;-47
2021/08/25 10:45:47;;;;;;;6.22;2.72;;;;;;;26.38;47.82;100329.67;1686875;81;21040;-47
2021/08/25 10:48:13;;;;;;;3.92;2.58;;;;;;;26.41;47.82;100323.93;1734412;81;21210;-46
2021/08/25 10:50:54;;;;;;;5.30;2.85;;;;;;;26.40;47.82;100308.36;1757013;79;21064;-45
2021/08/25 10:53:36;;;;;;;5.62;3.27;;;;;;;26.42;47.82;100309.62;1770026;80;21052;-45
2021/08/25 10:56:35;;;;;;;4.45;2.62;;;;;;;26.44;47.82;100295.32;1756591;80;21065;-46
2021/08/25 10:59:06;;;;;;;4.10;2.87;;;;;;;26.44;47.84;100289.74;1767543;80;21923;-46
2021/08/25 11:01:36;;;;;;;4.72;2.85;;;;;;;26.45;47.84;100282.38;1750760;80;21039;-48
2021/08/25 11:04:17;;;;;;;3.90;2.87;;;;;;;26.46;47.85;100290.97;1721535;81;21770;-48
2021/08/25 11:06:58;;;;;;;4.67;3.00;;;;;;;26.50;47.84;100284.06;1750549;80;20990;-53
2021/08/25 11:09:33;;;;;;;5.37;2.77;;;;;;;26.51;47.85;100281.50;1747624;80;21372;-48
2021/08/25 11:12:13;;;;;;;4.78;2.67;;;;;;;26.53;47.81;100286.10;1739256;81;20988;-46
2021/08/25 11:14:53;;;;;;;4.50;2.72;;;;;;;26.55;47.81;100293.53;1743860;80;21094;-47
2021/08/25 11:17:26;;;;;;;3.17;2.25;;;;;;;26.56;47.81;100282.01;1749353;80;20946;-46
2021/08/25 11:20:05;;;;;;;4.22;2.52;;;;;;;26.61;47.81;100280.86;1749267;80;21001;-46
2021/08/25 11:22:34;;;;;;;4.20;2.65;;;;;;;26.62;47.78;100267.14;1748700;80;21097;-45
2021/08/25 11:25:10;;;;;;;3.60;2.50;;;;;;;26.63;47.76;100264.58;1720528;81;21041;-45
2021/08/25 11:27:50;;;;;;;4.10;2.37;;;;;;;26.65;47.76;100272.00;1732197;80;21012;-47
2021/08/25 11:30:26;;;;;;;5.25;2.50;;;;;;;26.67;47.74;100266.25;1694961;83;23203;-46